createdAt,value
2023-04-20T03:14:14.803Z,100.00
2023-04-20T03:16:42.226Z,100.00
2023-04-20T03:19:10.247Z,100.00
2023-04-20T03:21:37.024Z,100.00
2023-04-20T03:24:04.867Z,100.00
2023-04-20T03:26:31.434Z,100.00
2023-04-20T03:29:14.560Z,100.00
2023-04-20T03:31:41.196Z,100.00
2023-04-20T03:34:09.689Z,100.00
2023-04-20T03:36:36.870Z,100.00
2023-04-20T03:39:04.447Z,100.00
2023-04-20T03:41:31.539Z,100.00
2023-04-20T03:43:58.177Z,100.00
2023-04-20T03:46:24.838Z,100.00
2023-04-20T03:48:51.462Z,100.00
2023-04-20T03:51:18.087Z,100.00
2023-04-20T03:53:44.654Z,100.00
2023-04-20T03:56:13.290Z,100.00
2023-04-20T03:58:40.296Z,100.00
2023-04-20T04:01:13.351Z,100.00
2023-04-20T04:03:44.444Z,100.00
2023-04-20T04:06:11.888Z,100.00
2023-04-20T04:08:38.619Z,100.00
2023-04-20T04:11:05.337Z,100.00
2023-04-20T04:13:34.409Z,100.00
2023-04-20T04:16:02.715Z,100.00
2023-04-20T04:18:32.501Z,100.00
2023-04-20T04:21:02.719Z,100.00
2023-04-20T04:23:29.283Z,100.00
2023-04-20T04:26:04.908Z,100.00
2023-04-20T04:28:34.513Z,100.00
2023-04-20T04:31:27.490Z,100.00
2023-04-20T04:33:59.940Z,100.00
2023-04-20T04:36:42.089Z,100.00
2023-04-20T04:39:15.330Z,100.00
2023-04-20T04:41:49.045Z,100.00
2023-04-20T04:44:25.973Z,100.00
2023-04-20T04:46:52.621Z,100.00
2023-04-20T04:49:20.520Z,100.00
2023-04-20T04:51:47.998Z,100.00
2023-04-20T04:54:14.510Z,100.00
2023-04-20T04:56:41.024Z,100.00
2023-04-20T04:59:07.551Z,100.00
2023-04-20T05:01:34.168Z,100.00
2023-04-20T05:04:01.445Z,100.00
2023-04-20T05:06:28.209Z,100.00
2023-04-20T05:08:54.691Z,100.00
2023-04-20T05:11:21.318Z,100.00
2023-04-20T05:13:48.517Z,100.00
2023-04-20T05:16:15.177Z,100.00
2023-04-20T05:18:41.721Z,100.00
2023-04-20T05:21:08.227Z,100.00
2023-04-20T05:23:34.729Z,100.00
2023-04-20T05:26:01.256Z,100.00
2023-04-20T05:28:27.801Z,100.00
2023-04-20T05:30:55.299Z,100.00
2023-04-20T05:33:22.493Z,100.00
2023-04-20T05:35:49.048Z,100.00
2023-04-20T05:38:15.541Z,100.00
2023-04-20T05:40:42.108Z,100.00
2023-04-20T05:43:08.630Z,100.00
2023-04-20T05:45:35.349Z,100.00
2023-04-20T05:48:02.046Z,100.00
2023-04-20T05:50:28.653Z,100.00
2023-04-20T05:52:55.397Z,100.00
2023-04-20T05:55:22.993Z,100.00
2023-04-20T05:57:51.986Z,100.00
2023-04-20T06:00:19.440Z,100.00
2023-04-20T06:02:46.197Z,100.00
2023-04-20T06:05:13.010Z,100.00
2023-04-20T06:07:40.353Z,100.00
2023-04-20T06:10:08.293Z,100.00
2023-04-20T06:12:35.220Z,100.00
2023-04-20T06:15:01.956Z,100.00
2023-04-20T06:17:28.476Z,100.00
2023-04-20T06:19:55.270Z,100.00
2023-04-20T06:22:21.953Z,100.00
2023-04-20T06:24:48.505Z,100.00
2023-04-20T06:27:14.975Z,100.00
2023-04-20T06:29:41.880Z,100.00
2023-04-20T06:32:08.455Z,100.00
2023-04-20T06:34:34.941Z,100.00
2023-04-20T06:37:01.511Z,100.00
2023-04-20T06:39:28.063Z,100.00
2023-04-20T06:41:54.595Z,100.00
2023-04-20T06:44:21.533Z,100.00
2023-04-20T06:46:48.113Z,100.00
2023-04-20T06:49:14.757Z,100.00
2023-04-20T06:51:41.261Z,100.00
2023-04-20T06:54:07.810Z,100.00
2023-04-20T06:56:35.434Z,100.00
2023-04-20T06:59:02.424Z,100.00
2023-04-20T07:01:29.071Z,100.00
2023-04-20T07:03:55.739Z,100.00
2023-04-20T07:06:22.509Z,100.00
2023-04-20T07:08:49.266Z,100.00
2023-04-20T07:11:16.252Z,100.00
2023-04-20T07:13:42.746Z,100.00
2023-04-20T07:16:10.173Z,100.00
2023-04-20T07:18:36.851Z,100.00
2023-04-20T07:21:03.587Z,100.00
2023-04-20T07:23:30.217Z,100.00
2023-04-20T07:25:56.740Z,100.00
2023-04-20T07:28:23.235Z,100.00
2023-04-20T07:30:49.819Z,100.00
2023-04-20T07:33:16.422Z,100.00
2023-04-20T07:35:42.983Z,97.99
2023-04-20T07:38:09.547Z,96.65
2023-04-20T07:40:36.117Z,100.00
2023-04-20T07:43:02.670Z,100.00
2023-04-20T07:45:29.245Z,100.00
2023-04-20T07:47:57.358Z,100.00
2023-04-20T07:50:24.030Z,100.00
2023-04-20T07:52:50.699Z,98.15
2023-04-20T07:55:17.380Z,97.34
2023-04-20T07:57:44.246Z,96.57
2023-04-20T08:00:12.788Z,97.27
2023-04-20T08:02:44.365Z,96.68
2023-04-20T08:05:11.202Z,91.74
2023-04-20T08:07:38.486Z,90.27
2023-04-20T08:10:08.666Z,85.93
2023-04-20T08:12:36.243Z,87.82
2023-04-20T08:15:06.268Z,85.12
2023-04-20T08:17:34.132Z,87.31
2023-04-20T08:20:01.240Z,90.23
2023-04-20T08:22:30.180Z,93.20
2023-04-20T08:24:57.593Z,87.44
2023-04-20T08:27:24.889Z,82.95
2023-04-20T08:29:51.868Z,82.04
2023-04-20T08:32:22.566Z,86.34
2023-04-20T08:34:49.892Z,85.48
2023-04-20T08:37:16.455Z,90.23
2023-04-20T08:39:42.985Z,87.01
2023-04-20T08:42:09.531Z,84.10
2023-04-20T08:44:36.038Z,78.19
2023-04-20T08:47:03.785Z,77.45
2023-04-20T08:49:31.251Z,76.85
2023-04-20T08:51:57.942Z,76.32
2023-04-20T08:54:24.881Z,71.69
2023-04-20T08:56:51.533Z,87.47
2023-04-20T08:59:18.058Z,82.43
2023-04-20T09:01:45.168Z,83.05
2023-04-20T09:04:30.167Z,76.49
2023-04-20T09:06:56.926Z,78.98
2023-04-20T09:09:25.248Z,81.81
2023-04-20T09:12:06.843Z,76.12
2023-04-20T09:14:44.639Z,78.12
2023-04-20T09:17:14.275Z,80.36
2023-04-20T09:19:43.664Z,86.99
2023-04-20T09:22:10.374Z,88.33
2023-04-20T09:24:38.611Z,93.85
2023-04-20T09:27:15.951Z,92.50
2023-04-20T09:29:42.758Z,95.60
2023-04-20T09:32:28.876Z,95.11
2023-04-20T09:34:56.299Z,94.86
2023-04-20T09:37:23.100Z,94.80
2023-04-20T09:39:50.361Z,94.21
2023-04-20T09:42:17.893Z,91.59
2023-04-20T09:44:44.812Z,83.94
2023-04-20T09:47:18.948Z,80.02
2023-04-20T09:49:48.905Z,76.49
2023-04-20T09:52:19.002Z,67.53
2023-04-20T09:54:46.255Z,77.92
2023-04-20T09:57:14.412Z,90.06
2023-04-20T09:59:43.727Z,97.24
2023-04-20T10:02:12.506Z,92.99
2023-04-20T10:04:53.996Z,96.61
2023-04-20T10:07:27.857Z,99.30
2023-04-20T10:10:03.372Z,100.00
2023-04-20T10:12:29.989Z,100.00
2023-04-20T10:14:57.738Z,100.00
2023-04-20T10:17:33.314Z,100.00
2023-04-20T10:19:59.964Z,100.00
2023-04-20T10:22:33.534Z,100.00
2023-04-20T10:25:14.486Z,100.00
2023-04-20T10:27:52.906Z,100.00
2023-04-20T10:30:20.050Z,100.00
2023-04-20T10:32:46.646Z,100.00
2023-04-20T10:35:14.511Z,100.00
2023-04-20T10:37:51.171Z,100.00
2023-04-20T10:40:27.075Z,100.00
2023-04-20T10:42:54.046Z,100.00
2023-04-20T10:45:21.893Z,100.00
2023-04-20T10:47:48.491Z,100.00
2023-04-20T10:50:16.390Z,100.00
2023-04-20T10:52:44.484Z,100.00
2023-04-20T10:55:25.811Z,100.00
2023-04-20T10:57:53.236Z,100.00
2023-04-20T11:00:21.723Z,100.00
2023-04-20T11:02:58.942Z,100.00
2023-04-20T11:05:27.874Z,100.00
2023-04-20T11:07:59.584Z,100.00
2023-04-20T11:10:39.745Z,100.00
2023-04-20T11:13:08.894Z,100.00
2023-04-20T11:15:35.517Z,100.00
2023-04-20T11:18:09.549Z,100.00
2023-04-20T11:20:36.372Z,100.00
2023-04-20T11:23:05.023Z,100.00
2023-04-20T11:25:32.123Z,100.00
2023-04-20T11:28:08.896Z,91.80
2023-04-20T11:30:41.977Z,84.85
2023-04-20T11:33:09.104Z,86.34
2023-04-20T11:35:40.259Z,82.19
2023-04-20T11:38:07.560Z,84.84
2023-04-20T11:40:34.699Z,98.58
2023-04-20T11:43:01.300Z,100.00
2023-04-20T11:45:33.819Z,100.00
2023-04-20T11:48:01.701Z,100.00
2023-04-20T11:50:28.344Z,100.00
2023-04-20T11:52:54.872Z,100.00
2023-04-20T11:55:21.740Z,100.00
2023-04-20T11:57:48.352Z,100.00
2023-04-20T12:00:15.492Z,100.00
2023-04-20T12:02:42.261Z,100.00
2023-04-20T12:05:09.686Z,100.00
2023-04-20T12:07:36.312Z,100.00
2023-04-20T12:10:04.018Z,100.00
2023-04-20T12:12:30.969Z,100.00
2023-04-20T12:14:57.697Z,100.00
2023-04-20T12:17:24.252Z,100.00
2023-04-20T12:19:51.018Z,100.00
2023-04-20T12:22:17.600Z,100.00
2023-04-20T12:24:44.157Z,100.00
2023-04-20T12:27:10.881Z,100.00
2023-04-20T12:29:37.391Z,100.00
2023-04-20T12:32:04.160Z,100.00
2023-04-20T12:34:30.917Z,100.00
2023-04-20T12:36:57.467Z,100.00
2023-04-20T12:39:23.975Z,100.00
2023-04-20T12:41:50.558Z,100.00
2023-04-20T12:44:17.647Z,100.00
2023-04-20T12:46:44.401Z,100.00
2023-04-20T12:49:10.935Z,100.00
2023-04-20T12:51:37.623Z,100.00
2023-04-20T12:54:04.244Z,100.00
2023-04-20T12:56:31.072Z,100.00
2023-04-20T12:58:57.609Z,100.00
2023-04-20T13:01:24.236Z,100.00
2023-04-20T13:03:52.347Z,100.00
2023-04-20T13:06:19.110Z,100.00
2023-04-20T13:08:45.709Z,100.00
2023-04-20T13:11:15.233Z,100.00
2023-04-20T13:13:42.256Z,100.00
2023-04-20T13:16:09.047Z,100.00
2023-04-20T13:18:35.637Z,100.00
2023-04-20T13:21:02.190Z,100.00
2023-04-20T13:23:28.783Z,100.00
2023-04-20T13:25:56.846Z,100.00
2023-04-20T13:28:24.602Z,100.00
2023-04-20T13:30:55.390Z,100.00
2023-04-20T13:33:22.113Z,100.00
2023-04-20T13:35:48.791Z,100.00
2023-04-20T13:38:15.882Z,100.00
2023-04-20T13:41:03.180Z,100.00
2023-04-20T13:43:29.972Z,100.00
2023-04-20T13:45:56.546Z,100.00
2023-04-20T13:48:23.190Z,100.00
2023-04-20T13:50:49.827Z,100.00
2023-04-20T13:53:16.426Z,100.00
2023-04-20T13:55:42.989Z,100.00
2023-04-20T13:58:09.546Z,100.00
2023-04-20T14:00:36.134Z,100.00
2023-04-20T14:03:23.243Z,100.00
2023-04-20T14:05:51.644Z,100.00
2023-04-20T14:08:19.716Z,100.00
2023-04-20T14:10:46.323Z,100.00
2023-04-20T14:13:12.934Z,100.00
2023-04-20T14:15:39.869Z,100.00
2023-04-20T14:18:06.810Z,100.00
2023-04-20T14:20:33.578Z,100.00
2023-04-20T14:23:00.411Z,100.00
2023-04-20T14:25:32.421Z,100.00
2023-04-20T14:27:59.035Z,100.00
2023-04-20T14:30:28.407Z,100.00
2023-04-20T14:32:56.552Z,100.00
2023-04-20T14:35:24.699Z,100.00
2023-04-20T14:37:51.283Z,100.00
2023-04-20T14:40:20.700Z,100.00
2023-04-20T14:43:07.775Z,100.00
2023-04-20T14:45:34.259Z,100.00
2023-04-20T14:48:01.163Z,100.00
2023-04-20T14:50:27.893Z,100.00
2023-04-20T14:52:55.658Z,100.00
2023-04-20T14:55:25.529Z,100.00
2023-04-20T14:57:57.194Z,100.00
2023-04-20T15:00:25.643Z,100.00
2023-04-20T15:03:03.050Z,100.00
2023-04-20T15:05:36.540Z,100.00
2023-04-20T15:08:03.248Z,100.00
2023-04-20T15:10:32.671Z,100.00
2023-04-20T15:13:01.670Z,100.00
2023-04-20T15:15:41.272Z,100.00
2023-04-20T15:18:16.261Z,100.00
2023-04-20T15:20:43.197Z,100.00
2023-04-20T15:23:09.824Z,100.00
2023-04-20T15:25:38.984Z,100.00
2023-04-20T15:28:05.984Z,100.00
2023-04-20T15:30:33.052Z,100.00
2023-04-20T15:33:04.632Z,100.00
2023-04-20T15:35:32.533Z,100.00
2023-04-20T15:37:59.225Z,100.00
2023-04-20T15:40:28.878Z,100.00
2023-04-20T15:42:59.269Z,100.00
2023-04-20T15:45:27.885Z,100.00
2023-04-20T15:47:55.914Z,100.00
2023-04-20T15:50:36.042Z,100.00
2023-04-20T15:53:03.156Z,100.00
2023-04-20T15:55:34.701Z,100.00
2023-04-20T15:58:04.323Z,100.00
2023-04-20T16:00:33.694Z,100.00
2023-04-20T16:03:01.738Z,100.00
2023-04-20T16:05:28.791Z,100.00
2023-04-20T16:07:55.696Z,100.00
2023-04-20T16:10:23.503Z,100.00
2023-04-20T16:12:53.305Z,100.00
2023-04-20T16:15:23.131Z,100.00
2023-04-20T16:17:49.708Z,100.00
2023-04-20T16:20:18.460Z,100.00
2023-04-20T16:22:51.180Z,100.00
2023-04-20T16:25:23.315Z,100.00
2023-04-20T16:28:06.899Z,100.00
2023-04-20T16:30:33.742Z,100.00
2023-04-20T16:33:00.544Z,100.00
2023-04-20T16:35:29.881Z,100.00
2023-04-20T16:37:56.992Z,100.00
2023-04-20T16:40:26.284Z,100.00
2023-04-20T16:42:53.137Z,100.00
2023-04-20T16:45:20.016Z,100.00
2023-04-20T16:47:47.588Z,100.00
2023-04-20T16:50:19.387Z,100.00
2023-04-20T16:52:47.097Z,100.00
2023-04-20T16:55:13.950Z,100.00
2023-04-20T16:57:43.622Z,100.00
2023-04-20T17:00:12.580Z,100.00
2023-04-20T17:02:51.799Z,100.00
2023-04-20T17:05:42.170Z,100.00
2023-04-20T17:08:27.942Z,100.00
2023-04-20T17:11:15.737Z,100.00
2023-04-20T17:14:06.381Z,100.00
2023-04-20T17:16:55.080Z,100.00
2023-04-20T17:19:44.178Z,100.00
2023-04-20T17:22:31.230Z,100.00
2023-04-20T17:25:20.735Z,100.00
2023-04-20T17:28:07.829Z,100.00
2023-04-20T17:30:55.942Z,100.00
2023-04-20T17:33:44.829Z,100.00
2023-04-20T17:36:34.009Z,100.00
2023-04-20T17:39:22.426Z,100.00
2023-04-20T17:42:10.716Z,100.00
2023-04-20T17:44:57.940Z,100.00
2023-04-20T17:47:47.777Z,100.00
2023-04-20T17:50:34.985Z,100.00
2023-04-20T17:53:21.828Z,100.00
2023-04-20T17:56:08.760Z,100.00
2023-04-20T17:58:55.665Z,100.00
2023-04-20T18:01:42.558Z,100.00
2023-04-20T18:04:29.610Z,100.00
2023-04-20T18:07:17.790Z,100.00
2023-04-20T18:10:05.940Z,100.00
2023-04-20T18:12:53.785Z,100.00
2023-04-20T18:16:06.752Z,100.00
2023-04-20T18:18:53.638Z,100.00
2023-04-20T18:21:40.853Z,100.00
2023-04-20T18:24:27.857Z,100.00
2023-04-20T18:27:14.764Z,100.00
2023-04-20T18:30:01.606Z,100.00
2023-04-20T18:32:48.476Z,100.00
2023-04-20T18:35:35.668Z,100.00
2023-04-20T18:38:22.460Z,100.00
2023-04-20T18:41:09.307Z,100.00
2023-04-20T18:43:56.824Z,100.00
2023-04-20T18:46:43.853Z,100.00
2023-04-20T18:49:30.843Z,100.00
2023-04-20T18:52:19.187Z,100.00
2023-04-20T18:55:07.146Z,100.00
2023-04-20T18:57:53.984Z,100.00
2023-04-20T19:00:40.950Z,100.00
2023-04-20T19:03:27.951Z,100.00
2023-04-20T19:06:15.124Z,100.00
2023-04-20T19:09:02.017Z,100.00
2023-04-20T19:11:50.188Z,100.00
2023-04-20T19:14:37.102Z,100.00
2023-04-20T19:17:23.952Z,100.00
2023-04-20T19:20:11.367Z,100.00
2023-04-20T19:22:58.252Z,100.00
2023-04-20T19:25:45.072Z,100.00
2023-04-20T19:28:31.868Z,100.00
2023-04-20T19:31:18.905Z,100.00
2023-04-20T19:34:07.002Z,100.00
2023-04-20T19:36:54.140Z,100.00
2023-04-20T19:39:43.286Z,100.00
2023-04-20T19:42:31.693Z,100.00
2023-04-20T19:45:18.739Z,100.00
